createdAt,value
2018-09-22T00:01:27.680Z,99734.37
2018-09-22T00:03:03.244Z,99740.36
2018-09-22T00:04:40.000Z,99741.67
2018-09-22T00:06:15.472Z,99747.20
2018-09-22T00:07:51.000Z,99740.97
2018-09-22T00:09:26.614Z,99742.29
2018-09-22T00:11:02.180Z,99736.02
2018-09-22T00:12:37.681Z,99739.75
2018-09-22T00:14:13.170Z,99740.09
2018-09-22T00:15:48.669Z,99744.19
2018-09-22T00:17:24.161Z,99739.52
2018-09-22T00:18:59.678Z,99706.56
2018-09-22T00:20:35.234Z,99738.20
2018-09-22T00:22:10.741Z,99741.70
2018-09-22T00:23:46.182Z,99742.17
2018-09-22T00:25:22.088Z,99743.13
2018-09-22T00:26:58.313Z,99745.52
2018-09-22T00:28:33.797Z,99745.04
2018-09-22T00:30:09.874Z,99746.62
2018-09-22T00:31:45.653Z,99744.81
2018-09-22T00:33:21.132Z,99753.69
2018-09-22T00:34:56.618Z,99753.19
2018-09-22T00:36:32.066Z,99746.97
2018-09-22T00:38:07.550Z,99747.79
2018-09-22T00:39:44.146Z,99754.50
2018-09-22T00:41:19.899Z,99752.61
2018-09-22T00:42:56.330Z,99753.19
2018-09-22T00:44:31.856Z,99744.45
2018-09-22T00:46:08.190Z,99747.81
2018-09-22T00:47:43.668Z,99750.91
2018-09-22T00:49:19.148Z,99750.56
2018-09-22T00:50:54.650Z,99752.85
2018-09-22T00:52:30.147Z,99752.61
2018-09-22T00:54:05.635Z,99763.16
2018-09-22T00:55:41.172Z,99757.03
2018-09-22T00:57:16.694Z,99750.80
2018-09-22T00:58:53.456Z,99753.45
2018-09-22T01:00:28.984Z,99748.75
2018-09-22T01:02:04.966Z,99750.78
2018-09-22T01:03:40.502Z,99751.16
2018-09-22T01:05:16.017Z,99748.75
2018-09-22T01:06:51.676Z,99752.34
2018-09-22T01:08:27.170Z,99753.69
2018-09-22T01:10:02.640Z,99750.41
2018-09-22T01:11:38.607Z,99756.06
2018-09-22T01:13:14.156Z,99761.34
2018-09-22T01:14:49.650Z,99764.23
2018-09-22T01:16:25.195Z,99758.22
2018-09-22T01:18:00.654Z,99767.34
2018-09-22T01:19:37.341Z,99767.45
2018-09-22T01:21:12.852Z,99778.97
2018-09-22T01:22:48.591Z,99782.22
2018-09-22T01:24:24.101Z,99780.42
2018-09-22T01:25:59.608Z,99779.34
2018-09-22T01:27:35.065Z,99783.28
2018-09-22T01:29:14.851Z,99785.80
2018-09-22T01:30:50.384Z,99784.34
2018-09-22T01:32:26.789Z,99787.81
2018-09-22T01:34:02.287Z,99789.86
2018-09-22T01:35:38.178Z,99795.58
2018-09-22T01:37:13.741Z,99803.84
2018-09-22T01:38:49.290Z,99800.61
2018-09-22T01:40:24.772Z,99808.17
2018-09-22T01:42:00.323Z,99810.83
2018-09-22T01:43:36.030Z,99816.08
2018-09-22T01:45:12.316Z,99818.40
2018-09-22T01:46:48.035Z,99819.22
2018-09-22T01:48:23.482Z,99820.87
2018-09-22T01:49:59.033Z,99822.09
2018-09-22T01:51:34.516Z,99825.08
2018-09-22T01:53:10.083Z,99778.13
2018-09-22T01:54:46.264Z,99830.01
2018-09-22T01:56:23.955Z,99838.67
2018-09-22T01:57:59.401Z,99837.52
2018-09-22T01:59:34.902Z,99840.65
2018-09-22T02:01:11.158Z,99840.30
2018-09-22T02:02:46.820Z,99850.05
2018-09-22T02:04:22.800Z,99856.31
2018-09-22T02:05:58.375Z,99852.44
2018-09-22T02:07:33.900Z,99858.05
2018-09-22T02:09:10.135Z,99864.27
2018-09-22T02:10:45.701Z,99865.92
2018-09-22T02:12:21.090Z,99859.15
2018-09-22T02:13:57.034Z,99858.88
2018-09-22T02:15:32.797Z,99855.86
2018-09-22T02:17:08.234Z,99856.83
2018-09-22T02:18:45.351Z,99858.97
2018-09-22T02:20:21.294Z,99856.55
2018-09-22T02:21:56.797Z,99858.34
2018-09-22T02:23:32.908Z,99867.05
2018-09-22T02:25:08.472Z,99856.30
2018-09-22T02:26:44.167Z,99855.54
2018-09-22T02:28:19.678Z,99860.02
2018-09-22T02:29:56.162Z,99869.40
2018-09-22T02:31:31.674Z,99862.14
2018-09-22T02:33:07.764Z,99872.13
2018-09-22T02:34:43.343Z,99873.27
2018-09-22T02:36:18.819Z,99872.59
2018-09-22T02:37:54.327Z,99873.31
2018-09-22T02:39:29.917Z,99878.03
2018-09-22T02:41:05.726Z,99876.41
2018-09-22T02:42:41.278Z,99876.67
2018-09-22T02:44:16.784Z,99875.73
2018-09-22T02:45:53.706Z,99886.27
2018-09-22T02:47:29.197Z,99883.64
2018-09-22T02:49:04.733Z,99885.16
2018-09-22T02:50:40.620Z,99828.91
2018-09-22T02:52:16.782Z,99887.53
2018-09-22T02:53:52.253Z,99883.89
2018-09-22T02:55:28.942Z,99884.36
2018-09-22T02:57:05.255Z,99896.54
2018-09-22T02:58:40.742Z,99894.52
2018-09-22T03:00:18.162Z,99897.58
2018-09-22T03:01:53.719Z,99897.52
2018-09-22T03:03:29.440Z,99903.34
2018-09-22T03:05:05.085Z,99902.16
2018-09-22T03:06:40.742Z,99905.38
2018-09-22T03:08:16.820Z,99899.17
2018-09-22T03:09:52.365Z,99903.73
2018-09-22T03:11:27.950Z,99898.37
2018-09-22T03:13:03.439Z,99909.12
2018-09-22T03:14:38.919Z,99912.55
2018-09-22T03:16:14.398Z,99918.03
2018-09-22T03:17:49.886Z,99910.64
2018-09-22T03:19:26.065Z,99914.92
2018-09-22T03:21:01.769Z,99916.55
2018-09-22T03:22:38.003Z,99914.33
2018-09-22T03:24:13.581Z,99910.34
2018-09-22T03:25:49.087Z,99904.27
2018-09-22T03:27:24.545Z,99899.31
2018-09-22T03:29:00.072Z,99889.84
2018-09-22T03:30:35.561Z,99893.41
2018-09-22T03:32:11.093Z,99890.73
2018-09-22T03:33:46.562Z,99890.43
2018-09-22T03:35:22.140Z,99886.94
2018-09-22T03:36:57.635Z,99888.22
2018-09-22T03:38:33.126Z,99893.44
2018-09-22T03:40:08.661Z,99887.39
2018-09-22T03:41:45.126Z,99890.27
2018-09-22T03:43:20.665Z,99886.54
2018-09-22T03:44:56.126Z,99894.03
2018-09-22T03:46:31.630Z,99890.42
2018-09-22T03:48:07.201Z,99892.03
2018-09-22T03:49:42.708Z,99887.52
2018-09-22T03:51:18.184Z,99889.52
2018-09-22T03:52:53.689Z,99889.27
2018-09-22T03:54:29.236Z,99891.68
2018-09-22T03:56:04.775Z,99885.73
2018-09-22T03:57:40.226Z,99885.00
2018-09-22T03:59:15.698Z,99881.95
2018-09-22T04:00:51.392Z,99886.59
2018-09-22T04:02:30.051Z,99890.42
2018-09-22T04:04:05.542Z,99885.89
2018-09-22T04:05:41.026Z,99889.42
2018-09-22T04:07:16.534Z,99888.27
2018-09-22T04:08:52.004Z,99895.91
2018-09-22T04:10:27.471Z,99900.77
2018-09-22T04:12:02.939Z,99901.94
2018-09-22T04:13:38.430Z,99905.75
2018-09-22T04:15:13.954Z,99904.27
2018-09-22T04:16:49.460Z,99897.98
2018-09-22T04:18:24.906Z,99903.56
2018-09-22T04:20:01.318Z,99905.72
2018-09-22T04:21:37.183Z,99909.25
2018-09-22T04:23:12.990Z,99911.84
2018-09-22T04:24:48.445Z,99913.28
2018-09-22T04:26:23.874Z,99920.97
2018-09-22T04:27:59.349Z,99916.09
2018-09-22T04:29:34.936Z,99926.95
2018-09-22T04:31:10.641Z,99923.86
2018-09-22T04:32:46.179Z,99926.37
2018-09-22T04:34:21.690Z,99920.92
2018-09-22T04:35:57.257Z,99926.52
2018-09-22T04:37:32.769Z,99931.05
2018-09-22T04:39:09.048Z,99939.30
2018-09-22T04:40:44.570Z,99939.25
2018-09-22T04:42:20.067Z,99939.95
2018-09-22T04:43:55.573Z,99941.41
2018-09-22T04:45:31.170Z,99945.10
2018-09-22T04:47:06.611Z,99941.27
2018-09-22T04:48:42.054Z,99944.58
2018-09-22T04:50:17.543Z,99947.85
2018-09-22T04:51:53.061Z,99945.53
2018-09-22T04:53:28.523Z,99956.36
2018-09-22T04:55:04.045Z,99949.42
2018-09-22T04:56:39.517Z,99956.95
2018-09-22T04:58:15.006Z,99956.95
2018-09-22T04:59:50.498Z,99961.48
2018-09-22T05:01:26.424Z,99966.42
2018-09-22T05:03:01.899Z,99891.50
2018-09-22T05:04:37.630Z,99966.95
2018-09-22T05:06:13.088Z,99967.94
2018-09-22T05:07:48.533Z,99970.05
2018-09-22T05:09:23.985Z,99970.09
2018-09-22T05:10:59.450Z,99980.75
2018-09-22T05:12:34.959Z,99982.47
2018-09-22T05:14:10.516Z,99987.80
2018-09-22T05:15:45.962Z,99982.91
2018-09-22T05:17:21.441Z,99991.75
2018-09-22T05:18:56.915Z,99995.83
2018-09-22T05:20:32.399Z,99989.69
2018-09-22T05:22:07.856Z,99996.06
2018-09-22T05:23:43.374Z,99996.20
2018-09-22T05:25:18.814Z,99996.34
2018-09-22T05:26:54.306Z,99994.56
2018-09-22T05:28:29.866Z,99991.45
2018-09-22T05:30:05.431Z,100001.14
2018-09-22T05:31:40.946Z,99993.16
2018-09-22T05:33:16.434Z,100000.56
2018-09-22T05:34:51.999Z,99999.03
2018-09-22T05:36:27.491Z,99998.84
2018-09-22T05:38:02.963Z,100001.92
2018-09-22T05:39:38.434Z,100011.19
2018-09-22T05:41:13.914Z,100005.50
2018-09-22T05:42:49.494Z,100014.86
2018-09-22T05:44:24.959Z,100015.16
2018-09-22T05:46:00.441Z,100011.59
2018-09-22T05:47:35.907Z,100009.98
2018-09-22T05:49:11.440Z,100006.52
2018-09-22T05:50:46.909Z,100009.30
2018-09-22T05:52:22.573Z,100008.22
2018-09-22T05:53:58.084Z,100012.98
2018-09-22T05:55:33.624Z,100015.61
2018-09-22T05:57:09.099Z,100019.09
2018-09-22T05:58:44.593Z,100014.63
2018-09-22T06:00:20.197Z,100011.69
2018-09-22T06:01:55.658Z,100014.17
2018-09-22T06:03:31.173Z,100023.84
2018-09-22T06:05:06.768Z,100018.67
2018-09-22T06:06:45.295Z,100021.93
2018-09-22T06:08:20.783Z,100027.09
2018-09-22T06:09:56.246Z,100023.02
2018-09-22T06:11:32.709Z,100024.81
2018-09-22T06:13:08.195Z,100024.92
2018-09-22T06:14:43.754Z,100034.03
2018-09-22T06:16:19.252Z,100033.46
2018-09-22T06:17:54.754Z,100028.13
2018-09-22T06:19:30.226Z,100033.16
2018-09-22T06:21:05.739Z,100035.11
2018-09-22T06:22:41.258Z,100046.41
2018-09-22T06:24:16.751Z,100035.02
2018-09-22T06:25:52.545Z,100044.78
2018-09-22T06:27:28.001Z,100040.79
2018-09-22T06:29:03.522Z,100050.99
2018-09-22T06:30:39.727Z,100049.94
2018-09-22T06:32:15.177Z,100043.66
2018-09-22T06:33:50.870Z,100041.34
2018-09-22T06:35:26.362Z,100041.72
2018-09-22T06:37:01.902Z,100048.71
2018-09-22T06:38:37.861Z,100049.03
2018-09-22T06:40:13.391Z,100049.50
2018-09-22T06:41:48.971Z,100056.03
2018-09-22T06:43:24.613Z,100058.25
2018-09-22T06:45:00.120Z,100055.98
2018-09-22T06:46:35.632Z,100060.25
2018-09-22T06:48:11.126Z,100061.94
2018-09-22T06:49:46.647Z,100062.92
2018-09-22T06:51:22.124Z,100074.55
2018-09-22T06:52:57.764Z,100079.00
2018-09-22T06:54:33.337Z,100067.37
2018-09-22T06:56:08.839Z,100073.13
2018-09-22T06:57:44.359Z,100077.95
2018-09-22T06:59:20.296Z,100069.50
2018-09-22T07:00:56.228Z,100071.53
2018-09-22T07:02:31.718Z,100074.27
2018-09-22T07:04:07.217Z,100073.11
2018-09-22T07:05:42.678Z,100077.30
2018-09-22T07:07:18.241Z,100072.61
2018-09-22T07:08:53.836Z,100065.06
2018-09-22T07:10:29.334Z,100074.59
2018-09-22T07:12:04.811Z,100073.16
2018-09-22T07:13:40.373Z,100084.00
2018-09-22T07:15:16.775Z,100078.22
2018-09-22T07:16:52.206Z,100032.80
2018-09-22T07:18:27.686Z,100076.83
2018-09-22T07:20:03.231Z,100068.71
2018-09-22T07:21:45.156Z,100069.48
2018-09-22T07:23:20.655Z,100068.84
2018-09-22T07:24:56.127Z,100071.30
2018-09-22T07:26:31.587Z,100065.66
2018-09-22T07:28:07.069Z,100065.95
2018-09-22T07:29:42.612Z,100058.34
2018-09-22T07:31:18.074Z,100058.34
2018-09-22T07:32:53.530Z,100063.20
2018-09-22T07:34:29.239Z,100067.73
2018-09-22T07:36:04.790Z,100068.88
2018-09-22T07:37:40.325Z,100071.97
2018-09-22T07:39:15.851Z,100070.02
2018-09-22T07:40:51.296Z,100073.29
2018-09-22T07:42:26.829Z,100077.89
2018-09-22T07:44:02.320Z,100072.85
2018-09-22T07:45:37.778Z,100080.98
2018-09-22T07:47:13.255Z,100076.05
2018-09-22T07:48:48.791Z,100070.97
2018-09-22T07:50:24.257Z,100069.56
2018-09-22T07:51:59.773Z,100080.70
2018-09-22T07:53:35.260Z,100079.66
2018-09-22T07:55:10.730Z,100093.22
2018-09-22T07:56:46.238Z,100087.03
2018-09-22T07:58:21.732Z,100092.03
2018-09-22T07:59:57.264Z,100088.31
2018-09-22T08:01:32.752Z,100078.84
2018-09-22T08:03:08.234Z,100075.68
2018-09-22T08:04:43.761Z,100086.73
2018-09-22T08:06:19.255Z,100090.05
2018-09-22T08:07:54.762Z,100082.34
2018-09-22T08:09:30.375Z,100089.22
2018-09-22T08:11:05.815Z,100086.89
2018-09-22T08:12:41.274Z,100084.39
2018-09-22T08:14:16.785Z,100087.98
2018-09-22T08:15:52.324Z,100081.86
2018-09-22T08:17:27.877Z,100078.91
2018-09-22T08:19:03.362Z,100085.48
2018-09-22T08:20:38.939Z,100089.41
2018-09-22T08:22:14.432Z,100091.50
2018-09-22T08:23:49.981Z,100047.98
2018-09-22T08:25:25.448Z,100088.80
2018-09-22T08:27:01.065Z,100098.18
2018-09-22T08:28:36.534Z,100092.52
2018-09-22T08:30:12.039Z,100107.17
2018-09-22T08:31:48.037Z,100105.46
2018-09-22T08:33:23.591Z,100103.33
2018-09-22T08:34:59.166Z,100100.97
2018-09-22T08:36:35.056Z,100092.69
2018-09-22T08:38:10.266Z,100101.37
2018-09-22T08:39:45.797Z,100095.77
2018-09-22T08:41:21.298Z,100110.94
2018-09-22T08:42:56.738Z,100114.77
2018-09-22T08:44:32.233Z,100113.59
2018-09-22T08:46:07.740Z,100110.16
2018-09-22T08:47:43.204Z,100109.64
2018-09-22T08:49:18.786Z,100110.97
2018-09-22T08:50:54.327Z,100109.77
2018-09-22T08:52:29.815Z,100111.25
2018-09-22T08:54:05.376Z,100110.25
2018-09-22T08:55:41.935Z,100107.28
2018-09-22T08:57:17.406Z,100108.11
2018-09-22T08:58:52.912Z,100109.56
2018-09-22T09:00:28.482Z,100094.53
2018-09-22T09:02:03.902Z,100092.44
2018-09-22T09:03:39.492Z,100094.59
2018-09-22T09:05:15.025Z,100087.89
2018-09-22T09:06:50.558Z,100097.10
2018-09-22T09:08:26.866Z,100102.92
2018-09-22T09:10:02.402Z,100101.75
2018-09-22T09:11:37.910Z,100103.28
2018-09-22T09:13:13.452Z,100087.45
2018-09-22T09:14:48.941Z,100091.84
2018-09-22T09:16:24.507Z,100089.94
2018-09-22T09:18:00.044Z,100088.14
2018-09-22T09:19:35.586Z,100099.08
2018-09-22T09:21:11.080Z,100100.66
2018-09-22T09:22:47.635Z,100092.20
2018-09-22T09:24:29.602Z,100091.41
2018-09-22T09:26:05.092Z,100099.59
2018-09-22T09:27:40.576Z,100100.86
2018-09-22T09:29:16.021Z,100085.20
2018-09-22T09:30:51.674Z,100085.48
2018-09-22T09:32:27.239Z,100092.44
2018-09-22T09:34:02.770Z,100098.73
2018-09-22T09:35:38.302Z,100098.91
2018-09-22T09:37:13.763Z,100107.45
2018-09-22T09:38:52.094Z,100104.01
2018-09-22T09:40:27.610Z,100096.14
2018-09-22T09:42:03.128Z,100097.73
2018-09-22T09:43:39.171Z,100099.75
2018-09-22T09:45:14.801Z,100103.53
2018-09-22T09:46:50.478Z,100101.67
2018-09-22T09:48:25.983Z,100101.50
2018-09-22T09:50:01.471Z,100092.59
2018-09-22T09:51:36.990Z,100094.60
2018-09-22T09:53:12.940Z,100086.12
2018-09-22T09:54:48.423Z,100086.12
2018-09-22T09:56:24.342Z,100085.44
2018-09-22T09:57:59.859Z,100079.20
2018-09-22T09:59:35.334Z,100080.06
2018-09-22T10:01:10.825Z,100078.06
2018-09-22T10:02:46.324Z,100078.42
2018-09-22T10:04:21.843Z,100075.42
2018-09-22T10:05:57.304Z,100085.59
2018-09-22T10:07:32.810Z,100080.27
2018-09-22T10:09:09.039Z,100073.70
2018-09-22T10:10:45.112Z,100069.95
2018-09-22T10:12:20.577Z,100072.57
2018-09-22T10:13:56.061Z,100070.66
2018-09-22T10:15:31.472Z,100065.81
2018-09-22T10:17:06.982Z,100061.76
2018-09-22T10:18:43.010Z,100075.79
2018-09-22T10:20:19.025Z,100063.27
2018-09-22T10:21:55.462Z,100070.61
2018-09-22T10:23:30.921Z,100075.63
2018-09-22T10:25:07.301Z,100059.75
2018-09-22T10:26:43.766Z,100060.70
2018-09-22T10:28:19.238Z,100061.74
2018-09-22T10:29:54.691Z,100065.86
2018-09-22T10:31:30.175Z,100069.41
2018-09-22T10:33:05.672Z,100065.66
2018-09-22T10:34:41.113Z,100056.22
2018-09-22T10:36:16.586Z,100037.92
2018-09-22T10:37:53.485Z,100050.80
2018-09-22T10:39:28.983Z,100050.77
2018-09-22T10:41:04.468Z,100042.18
2018-09-22T10:42:39.911Z,100033.63
2018-09-22T10:44:15.422Z,100028.84
2018-09-22T10:45:50.905Z,100041.05
2018-09-22T10:47:26.403Z,100040.37
2018-09-22T10:49:01.921Z,100037.02
2018-09-22T10:50:37.456Z,100042.80
2018-09-22T10:52:12.905Z,100040.66
2018-09-22T10:53:48.352Z,100035.45
2018-09-22T10:55:23.839Z,100043.40
2018-09-22T10:56:59.531Z,100038.69
2018-09-22T10:58:35.159Z,100034.62
2018-09-22T11:00:10.610Z,100033.72
2018-09-22T11:01:46.128Z,100032.59
2018-09-22T11:03:21.747Z,100036.31
2018-09-22T11:04:57.219Z,100027.84
2018-09-22T11:06:32.658Z,100022.25
2018-09-22T11:08:08.177Z,100020.89
2018-09-22T11:09:43.719Z,100009.23
2018-09-22T11:11:19.288Z,100009.56
2018-09-22T11:12:54.826Z,100017.92
2018-09-22T11:14:30.348Z,100020.32
2018-09-22T11:16:05.887Z,100019.98
2018-09-22T11:17:41.372Z,100019.97
2018-09-22T11:19:16.880Z,100006.96
2018-09-22T11:20:52.396Z,100006.63
2018-09-22T11:22:27.866Z,100008.97
2018-09-22T11:24:03.398Z,100008.62
2018-09-22T11:25:38.983Z,100021.77
2018-09-22T11:27:14.487Z,100012.69
2018-09-22T11:28:49.949Z,100001.78
2018-09-22T11:30:25.380Z,100010.06
2018-09-22T11:32:00.879Z,100003.03
2018-09-22T11:33:36.366Z,99997.81
2018-09-22T11:35:14.696Z,99994.33
2018-09-22T11:36:50.227Z,99998.36
2018-09-22T11:38:25.745Z,99996.26
2018-09-22T11:40:01.246Z,99994.93
2018-09-22T11:41:36.809Z,99999.14
2018-09-22T11:43:12.516Z,99999.46
2018-09-22T11:44:48.000Z,100005.39
2018-09-22T11:46:23.499Z,99994.64
2018-09-22T11:47:58.943Z,99988.84
2018-09-22T11:49:34.456Z,99992.81
2018-09-22T11:51:09.916Z,99999.81
2018-09-22T11:52:45.366Z,99989.30
2018-09-22T11:54:20.918Z,99989.50
2018-09-22T11:55:56.395Z,99987.17
2018-09-22T11:57:31.846Z,99982.97
2018-09-22T11:59:07.335Z,100003.43
2018-09-22T12:00:42.771Z,99996.09
2018-09-22T12:02:18.218Z,99992.64
2018-09-22T12:03:53.674Z,99987.84
2018-09-22T12:05:29.150Z,99990.29
2018-09-22T12:07:04.602Z,99995.19
2018-09-22T12:08:40.058Z,99996.28
2018-09-22T12:10:15.490Z,99991.11
2018-09-22T12:11:50.973Z,99996.42
2018-09-22T12:13:26.412Z,99986.24
2018-09-22T12:15:01.839Z,99994.92
2018-09-22T12:16:37.414Z,99985.09
2018-09-22T12:18:12.924Z,99978.58
2018-09-22T12:19:48.510Z,99976.73
2018-09-22T12:21:24.092Z,99993.51
2018-09-22T12:22:59.543Z,99996.47
2018-09-22T12:24:35.134Z,99983.50
2018-09-22T12:26:10.664Z,99986.98
2018-09-22T12:27:47.203Z,99970.55
2018-09-22T12:29:22.689Z,99964.88
2018-09-22T12:30:58.202Z,99964.03
2018-09-22T12:32:33.694Z,99960.86
2018-09-22T12:34:09.179Z,99958.20
2018-09-22T12:35:44.681Z,99951.31
2018-09-22T12:37:20.141Z,99947.84
2018-09-22T12:38:55.775Z,99941.64
2018-09-22T12:40:31.254Z,99943.16
2018-09-22T12:42:06.761Z,99943.48
2018-09-22T12:43:42.210Z,99930.46
2018-09-22T12:45:17.692Z,99926.08
2018-09-22T12:46:53.151Z,99924.67
2018-09-22T12:48:28.606Z,99934.13
2018-09-22T12:50:04.234Z,99932.63
2018-09-22T12:51:39.917Z,99940.27
2018-09-22T12:53:16.006Z,99937.77
2018-09-22T12:54:51.479Z,99933.30
2018-09-22T12:56:26.978Z,99933.26
2018-09-22T12:58:02.575Z,99937.94
2018-09-22T12:59:38.139Z,99939.09
2018-09-22T13:01:13.659Z,99939.78
2018-09-22T13:02:49.136Z,99935.75
2018-09-22T13:04:24.623Z,99930.73
2018-09-22T13:06:00.133Z,99924.21
2018-09-22T13:07:35.793Z,99926.41
2018-09-22T13:09:12.056Z,99917.19
2018-09-22T13:10:47.551Z,99911.70
2018-09-22T13:12:23.072Z,99914.44
2018-09-22T13:13:58.547Z,99906.39
2018-09-22T13:15:34.050Z,99902.66
2018-09-22T13:17:09.554Z,99906.64
2018-09-22T13:18:45.076Z,99908.05
2018-09-22T13:20:20.660Z,99903.38
2018-09-22T13:21:56.123Z,99916.70
2018-09-22T13:23:31.571Z,99913.72
2018-09-22T13:25:07.138Z,99929.09
2018-09-22T13:26:42.637Z,99925.79
2018-09-22T13:28:18.093Z,99932.63
2018-09-22T13:29:53.647Z,99920.58
2018-09-22T13:31:29.187Z,99914.23
2018-09-22T13:33:04.743Z,99911.07
2018-09-22T13:34:40.276Z,99915.88
2018-09-22T13:36:15.818Z,99908.70
2018-09-22T13:37:51.566Z,99916.56
2018-09-22T13:39:27.057Z,99911.20
2018-09-22T13:41:02.542Z,99916.04
2018-09-22T13:42:38.084Z,99913.34
2018-09-22T13:44:13.718Z,99906.05
2018-09-22T13:45:49.256Z,99923.19
2018-09-22T13:47:24.785Z,99915.22
2018-09-22T13:49:00.294Z,99913.91
2018-09-22T13:50:35.793Z,99915.91
2018-09-22T13:52:12.323Z,99921.76
2018-09-22T13:53:49.546Z,99916.24
2018-09-22T13:55:25.275Z,99906.67
2018-09-22T13:57:00.832Z,99899.86
2018-09-22T13:58:36.330Z,99897.36
2018-09-22T14:00:11.826Z,99890.00
2018-09-22T14:01:47.440Z,99891.31
2018-09-22T14:03:23.142Z,99894.89
2018-09-22T14:04:58.598Z,99891.20
2018-09-22T14:06:34.237Z,99883.68
2018-09-22T14:08:09.663Z,99890.22
2018-09-22T14:09:45.147Z,99897.19
2018-09-22T14:11:20.639Z,99898.23
2018-09-22T14:12:56.187Z,99885.68
2018-09-22T14:14:31.690Z,99882.34
2018-09-22T14:16:07.198Z,99871.84
2018-09-22T14:17:42.725Z,99874.84
2018-09-22T14:19:18.215Z,99888.38
2018-09-22T14:20:53.810Z,99896.88
2018-09-22T14:22:30.236Z,99906.05
2018-09-22T14:24:05.747Z,99895.37
2018-09-22T14:25:41.289Z,99894.23
2018-09-22T14:27:16.801Z,99885.04
2018-09-22T14:28:52.295Z,99881.83
2018-09-22T14:30:27.750Z,99885.98
2018-09-22T14:32:03.269Z,99885.33
2018-09-22T14:33:38.711Z,99891.95
2018-09-22T14:35:14.210Z,99882.31
2018-09-22T14:36:49.755Z,99885.64
2018-09-22T14:38:25.206Z,99885.50
2018-09-22T14:40:00.663Z,99889.70
2018-09-22T14:41:36.218Z,99881.17
2018-09-22T14:43:11.694Z,99894.98
2018-09-22T14:44:47.126Z,99891.61
2018-09-22T14:46:22.568Z,99890.59
2018-09-22T14:47:58.067Z,99879.74
2018-09-22T14:49:33.568Z,99887.61
2018-09-22T14:51:09.028Z,99890.67
2018-09-22T14:52:44.570Z,99891.41
2018-09-22T14:54:20.092Z,99892.73
2018-09-22T14:55:55.600Z,99883.51
2018-09-22T14:57:31.232Z,99878.58
2018-09-22T14:59:07.869Z,99873.30
2018-09-22T15:00:43.443Z,99859.89
2018-09-22T15:02:19.305Z,99851.88
2018-09-22T15:03:55.030Z,99852.98
2018-09-22T15:05:30.726Z,99844.72
2018-09-22T15:07:06.282Z,99843.46
2018-09-22T15:08:42.776Z,99842.33
2018-09-22T15:10:19.366Z,99838.16
2018-09-22T15:11:55.061Z,99829.69
2018-09-22T15:13:30.674Z,99826.64
2018-09-22T15:15:06.190Z,99828.73
2018-09-22T15:16:41.662Z,99833.07
2018-09-22T15:18:18.202Z,99833.03
2018-09-22T15:19:53.861Z,99849.30
2018-09-22T15:21:29.885Z,99843.35
2018-09-22T15:23:05.453Z,99846.30
2018-09-22T15:24:41.189Z,99844.88
2018-09-22T15:26:16.802Z,99837.41
2018-09-22T15:27:52.381Z,99821.88
2018-09-22T15:29:27.870Z,99817.04
2018-09-22T15:31:03.790Z,99811.18
2018-09-22T15:32:39.450Z,99818.37
2018-09-22T15:34:14.947Z,99813.10
2018-09-22T15:35:50.635Z,99821.77
2018-09-22T15:37:26.414Z,99824.64
2018-09-22T15:39:02.037Z,99823.48
2018-09-22T15:40:37.613Z,99818.81
2018-09-22T15:42:14.164Z,99813.30
2018-09-22T15:43:51.486Z,99810.61
2018-09-22T15:45:27.043Z,99816.38
2018-09-22T15:47:03.576Z,99828.02
2018-09-22T15:48:39.363Z,99821.00
2018-09-22T15:50:15.459Z,99822.55
2018-09-22T15:51:50.996Z,99835.39
2018-09-22T15:53:26.565Z,99836.91
2018-09-22T15:55:03.216Z,99836.94
2018-09-22T15:56:39.217Z,99837.92
2018-09-22T15:58:14.752Z,99824.93
2018-09-22T15:59:51.332Z,99820.75
2018-09-22T16:01:26.898Z,99823.77
2018-09-22T16:03:02.409Z,99830.30
2018-09-22T16:04:38.079Z,99833.42
2018-09-22T16:06:13.671Z,99827.77
2018-09-22T16:07:49.204Z,99829.77
2018-09-22T16:09:31.313Z,99820.94
2018-09-22T16:11:06.776Z,99817.73
2018-09-22T16:12:42.271Z,99826.50
2018-09-22T16:14:17.784Z,99828.14
2018-09-22T16:15:53.407Z,99822.01
2018-09-22T16:17:29.015Z,99828.09
2018-09-22T16:19:04.683Z,99823.34
2018-09-22T16:20:40.258Z,99825.20
2018-09-22T16:22:15.820Z,99832.48
2018-09-22T16:23:51.398Z,99827.59
2018-09-22T16:25:27.003Z,99827.95
2018-09-22T16:27:02.633Z,99834.81
2018-09-22T16:28:38.087Z,99827.12
2018-09-22T16:30:13.647Z,99821.71
2018-09-22T16:31:49.170Z,99823.75
2018-09-22T16:33:24.707Z,99825.63
2018-09-22T16:35:00.275Z,99834.11
2018-09-22T16:36:35.874Z,99822.50
2018-09-22T16:38:11.470Z,99821.71
2018-09-22T16:39:47.031Z,99821.64
2018-09-22T16:41:22.531Z,99815.53
2018-09-22T16:42:58.062Z,99817.58
2018-09-22T16:44:33.587Z,99813.76
2018-09-22T16:46:09.241Z,99819.25
2018-09-22T16:47:44.882Z,99821.44
2018-09-22T16:49:20.398Z,99810.42
2018-09-22T16:50:55.908Z,99806.00
2018-09-22T16:52:31.836Z,99806.07
2018-09-22T16:54:07.953Z,99811.85
2018-09-22T16:55:43.567Z,99805.28
2018-09-22T16:57:19.503Z,99810.14
2018-09-22T16:58:55.144Z,99807.89
2018-09-22T17:00:30.721Z,99800.96
2018-09-22T17:02:06.270Z,99798.02
2018-09-22T17:03:41.844Z,99797.70
2018-09-22T17:05:17.344Z,99799.81
2018-09-22T17:06:52.899Z,99804.35
2018-09-22T17:08:28.452Z,99802.16
2018-09-22T17:10:04.376Z,99804.34
2018-09-22T17:11:40.454Z,99801.23
2018-09-22T17:13:16.074Z,99796.87
2018-09-22T17:14:51.927Z,99809.41
2018-09-22T17:16:27.656Z,99809.17
2018-09-22T17:18:03.404Z,99805.89
2018-09-22T17:19:39.182Z,99808.19
2018-09-22T17:21:15.144Z,99807.11
2018-09-22T17:22:50.907Z,99813.65
2018-09-22T17:24:26.480Z,99818.59
2018-09-22T17:26:02.031Z,99815.77
2018-09-22T17:27:37.764Z,99816.17
2018-09-22T17:29:13.310Z,99810.52
2018-09-22T17:30:49.160Z,99818.09
2018-09-22T17:32:24.891Z,99830.31
2018-09-22T17:34:00.636Z,99831.43
2018-09-22T17:35:36.826Z,99835.06
2018-09-22T17:37:12.429Z,99838.14
2018-09-22T17:38:48.094Z,99834.98
2018-09-22T17:40:24.040Z,99831.48
2018-09-22T17:41:59.778Z,99819.56
2018-09-22T17:43:35.319Z,99826.55
2018-09-22T17:45:11.071Z,99835.92
2018-09-22T17:46:46.693Z,99837.77
2018-09-22T17:48:22.797Z,99833.94
2018-09-22T17:49:59.053Z,99828.52
2018-09-22T17:51:35.119Z,99832.38
2018-09-22T17:53:13.589Z,99833.78
2018-09-22T17:54:49.867Z,99833.70
2018-09-22T17:56:25.732Z,99842.40
2018-09-22T17:58:01.463Z,99847.20
2018-09-22T17:59:37.332Z,99849.30
2018-09-22T18:01:13.011Z,99858.78
2018-09-22T18:02:48.673Z,99863.87
2018-09-22T18:04:24.661Z,99865.36
2018-09-22T18:06:00.324Z,99871.06
2018-09-22T18:07:36.088Z,99867.45
2018-09-22T18:09:11.964Z,99868.76
2018-09-22T18:10:47.811Z,99875.25
2018-09-22T18:12:23.599Z,99876.28
2018-09-22T18:13:59.872Z,99880.33
2018-09-22T18:15:35.865Z,99868.95
2018-09-22T18:17:11.895Z,99867.38
2018-09-22T18:18:47.620Z,99866.27
2018-09-22T18:20:23.557Z,99855.11
2018-09-22T18:21:59.435Z,99863.46
2018-09-22T18:23:35.253Z,99858.73
2018-09-22T18:25:10.908Z,99865.90
2018-09-22T18:26:46.818Z,99866.08
2018-09-22T18:28:22.839Z,99871.56
2018-09-22T18:29:58.476Z,99858.48
2018-09-22T18:31:34.083Z,99850.77
2018-09-22T18:33:11.659Z,99851.31